sensor_id;sensor_type;location;lat;lon;timestamp;pressure;altitude;pressure_sealevel;temperature;humidity
73842;BME280;62184;52.006;5.924;2022-10-30T00:00:57;100925.34;;;18.19;59.50
73842;BME280;62184;52.006;5.924;2022-10-30T00:03:23;100925.53;;;18.16;59.46
73842;BME280;62184;52.006;5.924;2022-10-30T00:05:50;100930.06;;;18.16;59.46
73842;BME280;62184;52.006;5.924;2022-10-30T00:08:20;100924.03;;;18.11;59.46
73842;BME280;62184;52.006;5.924;2022-10-30T00:10:48;100926.91;;;18.08;59.48
73842;BME280;62184;52.006;5.924;2022-10-30T00:13:14;100928.91;;;18.04;59.41
73842;BME280;62184;52.006;5.924;2022-10-30T00:15:45;100928.16;;;18.01;59.90
73842;BME280;62184;52.006;5.924;2022-10-30T00:18:16;100931.84;;;18.00;59.79
73842;BME280;62184;52.006;5.924;2022-10-30T00:20:43;100937.34;;;17.98;59.77
73842;BME280;62184;52.006;5.924;2022-10-30T00:23:09;100925.72;;;17.96;59.74
73842;BME280;62184;52.006;5.924;2022-10-30T00:25:36;100930.41;;;17.92;59.82
73842;BME280;62184;52.006;5.924;2022-10-30T00:28:02;100924.13;;;17.92;59.95
73842;BME280;62184;52.006;5.924;2022-10-30T00:30:29;100926.94;;;17.90;60.00
73842;BME280;62184;52.006;5.924;2022-10-30T00:32:56;100921.53;;;17.90;60.11
73842;BME280;62184;52.006;5.924;2022-10-30T00:35:25;100918.91;;;17.89;60.07
73842;BME280;62184;52.006;5.924;2022-10-30T00:37:51;100921.69;;;17.87;60.34
73842;BME280;62184;52.006;5.924;2022-10-30T00:40:18;100920.09;;;17.83;60.34
73842;BME280;62184;52.006;5.924;2022-10-30T00:42:45;100926.50;;;17.82;60.50
73842;BME280;62184;52.006;5.924;2022-10-30T00:45:13;100921.22;;;17.79;60.28
73842;BME280;62184;52.006;5.924;2022-10-30T00:47:45;100911.38;;;17.78;60.40
73842;BME280;62184;52.006;5.924;2022-10-30T00:50:19;100915.91;;;17.78;60.41
73842;BME280;62184;52.006;5.924;2022-10-30T00:52:55;100922.34;;;17.75;60.73
73842;BME280;62184;52.006;5.924;2022-10-30T00:55:30;100923.22;;;17.76;60.48
73842;BME280;62184;52.006;5.924;2022-10-30T00:58:07;100926.97;;;17.73;60.43
73842;BME280;62184;52.006;5.924;2022-10-30T01:00:39;100920.78;;;17.71;60.62
73842;BME280;62184;52.006;5.924;2022-10-30T01:03:11;100913.69;;;17.69;60.39
73842;BME280;62184;52.006;5.924;2022-10-30T01:05:38;100920.16;;;17.66;60.47
73842;BME280;62184;52.006;5.924;2022-10-30T01:08:09;100907.75;;;17.62;60.58
73842;BME280;62184;52.006;5.924;2022-10-30T01:10:36;100913.31;;;17.59;61.25
73842;BME280;62184;52.006;5.924;2022-10-30T01:13:04;100921.56;;;17.56;60.96
73842;BME280;62184;52.006;5.924;2022-10-30T01:15:34;100919.81;;;17.55;61.01
73842;BME280;62184;52.006;5.924;2022-10-30T01:18:19;100919.00;;;17.53;61.19
73842;BME280;62184;52.006;5.924;2022-10-30T01:21:06;100918.19;;;17.51;61.17
73842;BME280;62184;52.006;5.924;2022-10-30T01:23:51;100926.56;;;17.46;61.39
73842;BME280;62184;52.006;5.924;2022-10-30T01:26:47;100926.63;;;17.45;61.09
73842;BME280;62184;52.006;5.924;2022-10-30T01:29:33;100920.34;;;17.44;61.32
73842;BME280;62184;52.006;5.924;2022-10-30T01:32:24;100918.78;;;17.40;61.69
73842;BME280;62184;52.006;5.924;2022-10-30T01:35:10;100924.25;;;17.39;61.48
73842;BME280;62184;52.006;5.924;2022-10-30T01:37:47;100926.16;;;17.37;61.55
73842;BME280;62184;52.006;5.924;2022-10-30T01:40:22;100931.69;;;17.34;61.47
73842;BME280;62184;52.006;5.924;2022-10-30T01:42:50;100931.88;;;17.31;61.55
73842;BME280;62184;52.006;5.924;2022-10-30T01:45:26;100932.91;;;17.28;62.07
73842;BME280;62184;52.006;5.924;2022-10-30T01:48:29;100940.06;;;17.29;61.88
73842;BME280;62184;52.006;5.924;2022-10-30T01:51:18;100933.91;;;17.26;61.85
73842;BME280;62184;52.006;5.924;2022-10-30T01:54:02;100930.44;;;17.24;62.04
73842;BME280;62184;52.006;5.924;2022-10-30T01:56:47;100929.66;;;17.22;61.98
73842;BME280;62184;52.006;5.924;2022-10-30T01:59:29;100928.84;;;17.19;62.20
73842;BME280;62184;52.006;5.924;2022-10-30T02:01:59;100934.38;;;17.16;62.44
73842;BME280;62184;52.006;5.924;2022-10-30T02:04:25;100933.69;;;17.13;62.13
73842;BME280;62184;52.006;5.924;2022-10-30T02:06:52;100924.63;;;17.14;62.66
73842;BME280;62184;52.006;5.924;2022-10-30T02:09:19;100923.75;;;17.13;62.30
73842;BME280;62184;52.006;5.924;2022-10-30T02:11:49;100922.75;;;17.16;62.35
73842;BME280;62184;52.006;5.924;2022-10-30T02:14:20;100927.25;;;17.15;62.44
73842;BME280;62184;52.006;5.924;2022-10-30T02:16:53;100925.50;;;17.14;62.53
73842;BME280;62184;52.006;5.924;2022-10-30T02:19:23;100930.03;;;17.14;62.20
73842;BME280;62184;52.006;5.924;2022-10-30T02:21:52;100932.81;;;17.12;62.45
73842;BME280;62184;52.006;5.924;2022-10-30T02:24:19;100926.53;;;17.12;62.47
73842;BME280;62184;52.006;5.924;2022-10-30T02:26:45;100923.75;;;17.13;62.77
73842;BME280;62184;52.006;5.924;2022-10-30T02:29:12;100935.44;;;17.14;62.44
73842;BME280;62184;52.006;5.924;2022-10-30T02:31:38;100938.22;;;17.12;62.27
73842;BME280;62184;52.006;5.924;2022-10-30T02:34:05;100939.16;;;17.11;62.39
73842;BME280;62184;52.006;5.924;2022-10-30T02:36:31;100930.31;;;17.08;62.82
73842;BME280;62184;52.006;5.924;2022-10-30T02:39:00;100935.03;;;17.04;62.70
73842;BME280;62184;52.006;5.924;2022-10-30T02:41:27;100937.78;;;17.03;62.99
73842;BME280;62184;52.006;5.924;2022-10-30T02:43:54;100941.28;;;17.05;62.77
73842;BME280;62184;52.006;5.924;2022-10-30T02:46:20;100941.13;;;17.08;62.57
73842;BME280;62184;52.006;5.924;2022-10-30T02:48:47;100940.28;;;17.07;62.81
73842;BME280;62184;52.006;5.924;2022-10-30T02:51:13;100934.78;;;17.09;62.33
73842;BME280;62184;52.006;5.924;2022-10-30T02:53:40;100924.84;;;17.09;62.40
73842;BME280;62184;52.006;5.924;2022-10-30T02:56:11;100943.81;;;17.08;62.71
73842;BME280;62184;52.006;5.924;2022-10-30T02:58:38;100946.69;;;17.05;62.49
73842;BME280;62184;52.006;5.924;2022-10-30T03:01:06;100945.00;;;17.02;62.98
73842;BME280;62184;52.006;5.924;2022-10-30T03:03:34;100951.34;;;17.01;62.69
73842;BME280;62184;52.006;5.924;2022-10-30T03:06:00;100950.53;;;16.99;62.98
73842;BME280;62184;52.006;5.924;2022-10-30T03:08:27;100948.03;;;16.96;62.96
73842;BME280;62184;52.006;5.924;2022-10-30T03:10:59;100953.41;;;16.96;62.88
73842;BME280;62184;52.006;5.924;2022-10-30T03:13:31;100955.31;;;16.94;62.84
73842;BME280;62184;52.006;5.924;2022-10-30T03:15:59;100961.66;;;16.93;62.83
73842;BME280;62184;52.006;5.924;2022-10-30T03:18:26;100958.16;;;16.91;62.94
73842;BME280;62184;52.006;5.924;2022-10-30T03:20:55;100950.22;;;16.88;63.22
73842;BME280;62184;52.006;5.924;2022-10-30T03:23:22;100942.25;;;16.85;63.49
73842;BME280;62184;52.006;5.924;2022-10-30T03:25:51;100941.47;;;16.83;63.42
73842;BME280;62184;52.006;5.924;2022-10-30T03:28:18;100947.03;;;16.80;63.15
73842;BME280;62184;52.006;5.924;2022-10-30T03:30:47;100947.16;;;16.77;63.62
73842;BME280;62184;52.006;5.924;2022-10-30T03:33:14;100950.03;;;16.74;63.75
73842;BME280;62184;52.006;5.924;2022-10-30T03:35:42;100950.97;;;16.73;63.59
73842;BME280;62184;52.006;5.924;2022-10-30T03:38:09;100944.78;;;16.71;63.64
73842;BME280;62184;52.006;5.924;2022-10-30T03:40:36;100948.41;;;16.70;63.67
73842;BME280;62184;52.006;5.924;2022-10-30T03:43:02;100958.41;;;16.68;63.71
73842;BME280;62184;52.006;5.924;2022-10-30T03:45:28;100953.00;;;16.68;63.68
73842;BME280;62184;52.006;5.924;2022-10-30T03:47:59;100959.34;;;16.67;63.90
73842;BME280;62184;52.006;5.924;2022-10-30T03:50:26;100953.16;;;16.65;63.77
73842;BME280;62184;52.006;5.924;2022-10-30T03:52:52;100953.16;;;16.65;64.11
73842;BME280;62184;52.006;5.924;2022-10-30T03:55:19;100956.81;;;16.64;63.91
73842;BME280;62184;52.006;5.924;2022-10-30T03:57:46;100953.16;;;16.65;63.87
73842;BME280;62184;52.006;5.924;2022-10-30T04:00:13;100953.16;;;16.65;63.70
73842;BME280;62184;52.006;5.924;2022-10-30T04:02:44;100956.75;;;16.65;63.88
73842;BME280;62184;52.006;5.924;2022-10-30T04:05:14;100946.81;;;16.66;64.21
73842;BME280;62184;52.006;5.924;2022-10-30T04:07:43;100947.69;;;16.66;64.18
73842;BME280;62184;52.006;5.924;2022-10-30T04:10:10;100956.75;;;16.65;64.16
73842;BME280;62184;52.006;5.924;2022-10-30T04:12:36;100955.06;;;16.63;63.96
73842;BME280;62184;52.006;5.924;2022-10-30T04:15:05;100956.09;;;16.59;63.96
73842;BME280;62184;52.006;5.924;2022-10-30T04:17:33;100958.03;;;16.57;64.29
73842;BME280;62184;52.006;5.924;2022-10-30T04:20:00;100958.16;;;16.54;64.14
73842;BME280;62184;52.006;5.924;2022-10-30T04:22:29;100954.59;;;16.53;64.32
73842;BME280;62184;52.006;5.924;2022-10-30T04:24:55;100958.22;;;16.52;64.70
73842;BME280;62184;52.006;5.924;2022-10-30T04:27:22;100957.34;;;16.52;64.51
73842;BME280;62184;52.006;5.924;2022-10-30T04:29:50;100961.00;;;16.51;64.51
73842;BME280;62184;52.006;5.924;2022-10-30T04:32:17;100966.38;;;16.51;64.31
73842;BME280;62184;52.006;5.924;2022-10-30T04:34:43;100963.75;;;16.49;64.28
73842;BME280;62184;52.006;5.924;2022-10-30T04:37:10;100972.88;;;16.47;64.62
73842;BME280;62184;52.006;5.924;2022-10-30T04:39:39;100980.22;;;16.43;64.59
73842;BME280;62184;52.006;5.924;2022-10-30T04:42:05;100974.13;;;16.39;64.91
73842;BME280;62184;52.006;5.924;2022-10-30T04:44:31;100976.94;;;16.36;64.73
73842;BME280;62184;52.006;5.924;2022-10-30T04:46:58;100976.13;;;16.34;65.18
73842;BME280;62184;52.006;5.924;2022-10-30T04:49:24;100972.63;;;16.32;64.57
73842;BME280;62184;52.006;5.924;2022-10-30T04:51:51;100975.44;;;16.31;64.61
73842;BME280;62184;52.006;5.924;2022-10-30T04:54:17;100965.66;;;16.28;65.29
73842;BME280;62184;52.006;5.924;2022-10-30T04:56:46;100960.31;;;16.27;65.29
73842;BME280;62184;52.006;5.924;2022-10-30T04:59:13;100952.47;;;16.22;65.09
73842;BME280;62184;52.006;5.924;2022-10-30T05:01:39;100948.03;;;16.21;65.36
73842;BME280;62184;52.006;5.924;2022-10-30T05:04:05;100953.47;;;16.20;65.04
73842;BME280;62184;52.006;5.924;2022-10-30T05:06:32;100949.97;;;16.18;65.15
73842;BME280;62184;52.006;5.924;2022-10-30T05:08:59;100944.63;;;16.16;65.48
73842;BME280;62184;52.006;5.924;2022-10-30T05:11:25;100949.25;;;16.14;65.50
73842;BME280;62184;52.006;5.924;2022-10-30T05:13:54;100951.19;;;16.11;65.48
73842;BME280;62184;52.006;5.924;2022-10-30T05:16:21;100949.44;;;16.10;65.81
73842;BME280;62184;52.006;5.924;2022-10-30T05:18:47;100941.44;;;16.08;65.90
73842;BME280;62184;52.006;5.924;2022-10-30T05:21:14;100940.56;;;16.07;65.65
73842;BME280;62184;52.006;5.924;2022-10-30T05:23:40;100945.09;;;16.07;66.03
73842;BME280;62184;52.006;5.924;2022-10-30T05:26:07;100936.91;;;16.08;65.75
73842;BME280;62184;52.006;5.924;2022-10-30T05:28:33;100938.47;;;16.14;65.41
73842;BME280;62184;52.006;5.924;2022-10-30T05:31:03;100928.41;;;16.18;65.05
73842;BME280;62184;52.006;5.924;2022-10-30T05:33:29;100942.63;;;16.21;64.66
73842;BME280;62184;52.006;5.924;2022-10-30T05:35:56;100948.03;;;16.21;64.85
73842;BME280;62184;52.006;5.924;2022-10-30T05:38:22;100951.78;;;16.17;64.19
73842;BME280;62184;52.006;5.924;2022-10-30T05:40:49;100949.25;;;16.14;65.05
73842;BME280;62184;52.006;5.924;2022-10-30T05:43:15;100946.69;;;16.11;64.44
73842;BME280;62184;52.006;5.924;2022-10-30T05:45:41;100943.13;;;16.11;64.94
73842;BME280;62184;52.006;5.924;2022-10-30T05:48:10;100945.88;;;16.09;64.87
73842;BME280;62184;52.006;5.924;2022-10-30T05:50:37;100954.03;;;16.07;64.29
73842;BME280;62184;52.006;5.924;2022-10-30T05:53:04;100946.16;;;16.03;64.24
73842;BME280;62184;52.006;5.924;2022-10-30T05:55:30;100951.03;;;15.95;64.73
73842;BME280;62184;52.006;5.924;2022-10-30T05:57:58;100950.44;;;15.88;64.93
73842;BME280;62184;52.006;5.924;2022-10-30T06:00:27;100948.97;;;15.81;65.64
73842;BME280;62184;52.006;5.924;2022-10-30T06:02:58;100959.09;;;15.75;66.08
73842;BME280;62184;52.006;5.924;2022-10-30T06:05:29;100962.16;;;15.67;66.19
73842;BME280;62184;52.006;5.924;2022-10-30T06:07:56;100961.50;;;15.60;66.63
73842;BME280;62184;52.006;5.924;2022-10-30T06:10:23;100960.78;;;15.57;66.75
73842;BME280;62184;52.006;5.924;2022-10-30T06:12:53;100971.56;;;15.57;66.81
73842;BME280;62184;52.006;5.924;2022-10-30T06:15:20;100969.88;;;15.54;67.22
73842;BME280;62184;52.006;5.924;2022-10-30T06:17:47;100967.22;;;15.53;67.19
73842;BME280;62184;52.006;5.924;2022-10-30T06:20:14;100970.69;;;15.56;67.03
73842;BME280;62184;52.006;5.924;2022-10-30T06:22:52;100963.47;;;15.57;67.39
73842;BME280;62184;52.006;5.924;2022-10-30T06:25:19;100963.38;;;15.58;67.17
73842;BME280;62184;52.006;5.924;2022-10-30T06:27:45;100966.91;;;15.60;66.01
73842;BME280;62184;52.006;5.924;2022-10-30T06:30:12;100964.25;;;15.59;65.83
73842;BME280;62184;52.006;5.924;2022-10-30T06:32:38;100966.22;;;15.55;65.75
73842;BME280;62184;52.006;5.924;2022-10-30T06:35:05;100963.53;;;15.55;65.36
73842;BME280;62184;52.006;5.924;2022-10-30T06:37:32;100971.56;;;15.57;65.27
73842;BME280;62184;52.006;5.924;2022-10-30T06:40:02;100969.72;;;15.57;65.51
73842;BME280;62184;52.006;5.924;2022-10-30T06:42:29;100968.94;;;15.55;65.84
73842;BME280;62184;52.006;5.924;2022-10-30T06:44:55;100963.72;;;15.51;66.69
73842;BME280;62184;52.006;5.924;2022-10-30T06:47:21;100967.44;;;15.48;66.60
73842;BME280;62184;52.006;5.924;2022-10-30T06:49:48;100963.94;;;15.46;66.97
73842;BME280;62184;52.006;5.924;2022-10-30T06:52:14;100958.41;;;15.49;67.26
73842;BME280;62184;52.006;5.924;2022-10-30T06:54:41;100960.03;;;15.53;66.73
73842;BME280;62184;52.006;5.924;2022-10-30T06:57:10;100959.16;;;15.53;65.93
73842;BME280;62184;52.006;5.924;2022-10-30T06:59:36;100953.00;;;15.49;65.97
73842;BME280;62184;52.006;5.924;2022-10-30T07:02:02;100949.53;;;15.47;66.24
73842;BME280;62184;52.006;5.924;2022-10-30T07:04:29;100949.31;;;15.52;65.98
73842;BME280;62184;52.006;5.924;2022-10-30T07:06:55;100940.97;;;15.58;66.29
73842;BME280;62184;52.006;5.924;2022-10-30T07:09:22;100945.34;;;15.62;66.35
73842;BME280;62184;52.006;5.924;2022-10-30T07:11:48;100939.72;;;15.66;66.19
73842;BME280;62184;52.006;5.924;2022-10-30T07:14:17;100942.22;;;15.71;65.63
73842;BME280;62184;52.006;5.924;2022-10-30T07:16:43;100941.06;;;15.77;65.80
73842;BME280;62184;52.006;5.924;2022-10-30T07:19:10;100949.03;;;15.80;65.65
73842;BME280;62184;52.006;5.924;2022-10-30T07:21:36;100944.47;;;15.82;65.69
73842;BME280;62184;52.006;5.924;2022-10-30T07:24:03;100949.69;;;15.85;66.01
73842;BME280;62184;52.006;5.924;2022-10-30T07:26:30;100953.13;;;15.88;66.24
73842;BME280;62184;52.006;5.924;2022-10-30T07:28:57;100953.06;;;15.90;65.62
73842;BME280;62184;52.006;5.924;2022-10-30T07:31:26;100950.09;;;15.96;65.82
73842;BME280;62184;52.006;5.924;2022-10-30T07:33:52;100945.41;;;15.99;65.95
73842;BME280;62184;52.006;5.924;2022-10-30T07:36:18;100953.44;;;16.01;66.29
73842;BME280;62184;52.006;5.924;2022-10-30T07:38:46;100947.84;;;16.05;66.06
73842;BME280;62184;52.006;5.924;2022-10-30T07:41:13;100959.28;;;16.11;66.33
73842;BME280;62184;52.006;5.924;2022-10-30T07:43:39;100953.81;;;16.12;65.98
73842;BME280;62184;52.006;5.924;2022-10-30T07:46:06;100960.97;;;16.13;66.11
73842;BME280;62184;52.006;5.924;2022-10-30T07:48:35;100959.00;;;16.17;66.11
73842;BME280;62184;52.006;5.924;2022-10-30T07:51:01;100965.06;;;16.22;66.43
73842;BME280;62184;52.006;5.924;2022-10-30T07:53:28;100961.00;;;16.32;65.68
73842;BME280;62184;52.006;5.924;2022-10-30T07:55:54;100954.31;;;16.40;65.52
73842;BME280;62184;52.006;5.924;2022-10-30T07:58:21;100953.06;;;16.48;65.33
73842;BME280;62184;52.006;5.924;2022-10-30T08:00:47;100953.84;;;16.50;65.72
73842;BME280;62184;52.006;5.924;2022-10-30T08:03:14;100955.75;;;16.48;65.82
73842;BME280;62184;52.006;5.924;2022-10-30T08:05:43;100955.91;;;16.44;66.00
73842;BME280;62184;52.006;5.924;2022-10-30T08:08:10;100961.41;;;16.41;65.98
73842;BME280;62184;52.006;5.924;2022-10-30T08:10:36;100961.41;;;16.41;66.15
73842;BME280;62184;52.006;5.924;2022-10-30T08:13:03;100958.59;;;16.44;66.14
73842;BME280;62184;52.006;5.924;2022-10-30T08:15:29;100965.25;;;16.56;66.40
73842;BME280;62184;52.006;5.924;2022-10-30T08:17:56;100969.06;;;16.71;66.09
73842;BME280;62184;52.006;5.924;2022-10-30T08:20:23;100955.94;;;16.82;65.40
73842;BME280;62184;52.006;5.924;2022-10-30T08:22:54;100956.25;;;16.93;65.37
73842;BME280;62184;52.006;5.924;2022-10-30T08:25:23;100951.34;;;17.01;65.21
73842;BME280;62184;52.006;5.924;2022-10-30T08:27:52;100944.56;;;17.11;65.53
73842;BME280;62184;52.006;5.924;2022-10-30T08:30:21;100942.19;;;17.23;65.09
73842;BME280;62184;52.006;5.924;2022-10-30T08:32:49;100938.22;;;17.30;64.86
73842;BME280;62184;52.006;5.924;2022-10-30T08:35:15;100936.88;;;17.38;64.52
73842;BME280;62184;52.006;5.924;2022-10-30T08:37:42;100941.88;;;17.46;64.35
73842;BME280;62184;52.006;5.924;2022-10-30T08:40:12;100947.75;;;17.54;63.93
73842;BME280;62184;52.006;5.924;2022-10-30T08:42:38;100948.41;;;17.59;64.12
73842;BME280;62184;52.006;5.924;2022-10-30T08:45:05;100942.72;;;17.65;63.50
73842;BME280;62184;52.006;5.924;2022-10-30T08:47:33;100943.88;;;17.77;63.54
73842;BME280;62184;52.006;5.924;2022-10-30T08:49:59;100942.38;;;17.88;63.01
73842;BME280;62184;52.006;5.924;2022-10-30T08:52:26;100931.13;;;17.96;63.09
73842;BME280;62184;52.006;5.924;2022-10-30T08:54:52;100935.03;;;18.08;62.92
73842;BME280;62184;52.006;5.924;2022-10-30T08:57:21;100930.94;;;18.16;62.88
73842;BME280;62184;52.006;5.924;2022-10-30T08:59:47;100925.25;;;18.21;61.99
73842;BME280;62184;52.006;5.924;2022-10-30T09:02:14;100931.28;;;18.26;62.38
73842;BME280;62184;52.006;5.924;2022-10-30T09:04:40;100935.50;;;18.31;62.07
73842;BME280;62184;52.006;5.924;2022-10-30T09:07:07;100944.13;;;18.38;61.81
73842;BME280;62184;52.006;5.924;2022-10-30T09:09:33;100952.84;;;18.43;61.43
73842;BME280;62184;52.006;5.924;2022-10-30T09:11:59;100954.53;;;18.46;61.71
73842;BME280;62184;52.006;5.924;2022-10-30T09:14:28;100937.31;;;18.48;61.29
73842;BME280;62184;52.006;5.924;2022-10-30T09:16:55;100927.88;;;18.55;61.37
73842;BME280;62184;52.006;5.924;2022-10-30T09:19:21;100931.00;;;18.63;61.15
73842;BME280;62184;52.006;5.924;2022-10-30T09:21:47;100927.16;;;18.67;61.10
73842;BME280;62184;52.006;5.924;2022-10-30T09:24:14;100927.50;;;18.77;61.17
73842;BME280;62184;52.006;5.924;2022-10-30T09:26:40;100928.56;;;18.90;60.71
73842;BME280;62184;52.006;5.924;2022-10-30T09:29:07;100933.34;;;19.01;60.34
73842;BME280;62184;52.006;5.924;2022-10-30T09:31:36;100941.38;;;19.02;59.78
73842;BME280;62184;52.006;5.924;2022-10-30T09:34:02;100935.88;;;19.04;60.06
73842;BME280;62184;52.006;5.924;2022-10-30T09:36:28;100940.84;;;19.12;60.13
73842;BME280;62184;52.006;5.924;2022-10-30T09:38:55;100931.88;;;19.25;59.88
73842;BME280;62184;52.006;5.924;2022-10-30T09:41:53;100942.91;;;19.38;59.21
73842;BME280;62184;52.006;5.924;2022-10-30T09:44:49;100936.84;;;19.49;59.34
73842;BME280;62184;52.006;5.924;2022-10-30T09:47:35;100934.47;;;19.58;58.97
73842;BME280;62184;52.006;5.924;2022-10-30T09:50:21;100937.38;;;19.69;58.48
73842;BME280;62184;52.006;5.924;2022-10-30T09:52:57;100936.72;;;19.80;58.09
73842;BME280;62184;52.006;5.924;2022-10-30T09:55:39;100928.81;;;19.91;57.44
73842;BME280;62184;52.006;5.924;2022-10-30T09:58:25;100927.94;;;20.05;57.60
73842;BME280;62184;52.006;5.924;2022-10-30T10:01:08;100936.09;;;20.19;57.33
73842;BME280;62184;52.006;5.924;2022-10-30T10:03:51;100931.75;;;20.31;57.03
73842;BME280;62184;52.006;5.924;2022-10-30T10:06:26;100942.59;;;20.45;56.91
73842;BME280;62184;52.006;5.924;2022-10-30T10:08:56;100934.81;;;20.53;56.62
73842;BME280;62184;52.006;5.924;2022-10-30T10:11:31;100934.03;;;20.65;56.16
73842;BME280;62184;52.006;5.924;2022-10-30T10:14:05;100939.75;;;20.75;56.26
73842;BME280;62184;52.006;5.924;2022-10-30T10:16:39;100937.56;;;20.80;55.63
73842;BME280;62184;52.006;5.924;2022-10-30T10:19:15;100947.09;;;20.73;56.07
73842;BME280;62184;52.006;5.924;2022-10-30T10:21:49;100961.19;;;20.65;56.22
73842;BME280;62184;52.006;5.924;2022-10-30T10:24:22;100958.66;;;20.62;56.17
73842;BME280;62184;52.006;5.924;2022-10-30T10:26:55;100966.50;;;20.67;56.30
73842;BME280;62184;52.006;5.924;2022-10-30T10:29:40;100965.03;;;20.75;56.79
73842;BME280;62184;52.006;5.924;2022-10-30T10:32:42;100968.91;;;21.00;56.51
73842;BME280;62184;52.006;5.924;2022-10-30T10:35:39;100967.97;;;21.13;54.92
73842;BME280;62184;52.006;5.924;2022-10-30T10:38:27;100964.09;;;21.17;55.45
73842;BME280;62184;52.006;5.924;2022-10-30T10:41:10;100964.63;;;21.22;54.99
73842;BME280;62184;52.006;5.924;2022-10-30T10:43:58;100962.97;;;21.20;55.04
73842;BME280;62184;52.006;5.924;2022-10-30T10:46:40;100955.16;;;21.15;54.93
73842;BME280;62184;52.006;5.924;2022-10-30T10:49:32;100952.78;;;21.23;55.04
73842;BME280;62184;52.006;5.924;2022-10-30T10:52:15;100949.91;;;21.39;55.00
73842;BME280;62184;52.006;5.924;2022-10-30T10:54:48;100953.06;;;21.46;54.63
73842;BME280;62184;52.006;5.924;2022-10-30T10:57:25;100952.44;;;21.42;54.10
73842;BME280;62184;52.006;5.924;2022-10-30T10:59:57;100940.00;;;21.38;54.78
73842;BME280;62184;52.006;5.924;2022-10-30T11:02:32;100945.69;;;21.48;54.85
73842;BME280;62184;52.006;5.924;2022-10-30T11:05:07;100940.25;;;21.60;54.27
73842;BME280;62184;52.006;5.924;2022-10-30T11:07:48;100941.38;;;21.70;54.06
73842;BME280;62184;52.006;5.924;2022-10-30T11:10:18;100935.34;;;21.80;54.26
73842;BME280;62184;52.006;5.924;2022-10-30T11:12:45;100928.81;;;21.95;54.19
73842;BME280;62184;52.006;5.924;2022-10-30T11:15:21;100923.03;;;22.12;53.49
73842;BME280;62184;52.006;5.924;2022-10-30T11:17:59;100929.00;;;22.30;53.02
73842;BME280;62184;52.006;5.924;2022-10-30T11:20:32;100930.97;;;22.40;52.82
73842;BME280;62184;52.006;5.924;2022-10-30T11:23:29;100921.50;;;22.59;52.67
73842;BME280;62184;52.006;5.924;2022-10-30T11:25:57;100924.25;;;22.70;52.03
73842;BME280;62184;52.006;5.924;2022-10-30T11:28:34;100929.03;;;22.79;51.83
73842;BME280;62184;52.006;5.924;2022-10-30T11:31:16;100919.31;;;22.88;51.02
73842;BME280;62184;52.006;5.924;2022-10-30T11:33:44;100918.22;;;22.90;51.14
73842;BME280;62184;52.006;5.924;2022-10-30T11:36:13;100908.09;;;22.92;51.00
73842;BME280;62184;52.006;5.924;2022-10-30T11:38:43;100911.03;;;22.89;51.07
73842;BME280;62184;52.006;5.924;2022-10-30T11:41:11;100914.25;;;22.94;51.28
73842;BME280;62184;52.006;5.924;2022-10-30T11:43:40;100905.66;;;23.00;51.22
73842;BME280;62184;52.006;5.924;2022-10-30T11:46:10;100909.75;;;23.06;50.89
73842;BME280;62184;52.006;5.924;2022-10-30T11:48:44;100911.78;;;23.15;51.13
73842;BME280;62184;52.006;5.924;2022-10-30T11:51:12;100903.06;;;23.23;50.88
73842;BME280;62184;52.006;5.924;2022-10-30T11:53:46;100904.31;;;23.30;50.41
73842;BME280;62184;52.006;5.924;2022-10-30T11:56:17;100896.66;;;23.35;50.15
73842;BME280;62184;52.006;5.924;2022-10-30T11:58:47;100889.00;;;23.40;50.28
73842;BME280;62184;52.006;5.924;2022-10-30T12:01:21;100899.66;;;23.43;49.84
73842;BME280;62184;52.006;5.924;2022-10-30T12:03:50;100904.38;;;23.41;50.63
73842;BME280;62184;52.006;5.924;2022-10-30T12:06:19;100901.53;;;23.42;49.62
73842;BME280;62184;52.006;5.924;2022-10-30T12:09:02;100898.38;;;23.36;50.16
73842;BME280;62184;52.006;5.924;2022-10-30T12:11:35;100894.94;;;23.34;49.29
73842;BME280;62184;52.006;5.924;2022-10-30T12:14:03;100890.84;;;23.39;49.94
73842;BME280;62184;52.006;5.924;2022-10-30T12:16:31;100886.44;;;23.49;49.87
73842;BME280;62184;52.006;5.924;2022-10-30T12:19:00;100880.59;;;23.54;49.90
73842;BME280;62184;52.006;5.924;2022-10-30T12:21:33;100883.59;;;23.62;49.93
73842;BME280;62184;52.006;5.924;2022-10-30T12:24:06;100891.53;;;23.65;49.66
73842;BME280;62184;52.006;5.924;2022-10-30T12:26:45;100886.56;;;23.70;49.88
73842;BME280;62184;52.006;5.924;2022-10-30T12:29:16;100894.53;;;23.73;49.90
73842;BME280;62184;52.006;5.924;2022-10-30T12:31:51;100898.00;;;23.75;49.19
73842;BME280;62184;52.006;5.924;2022-10-30T12:34:27;100898.50;;;23.80;49.28
73842;BME280;62184;52.006;5.924;2022-10-30T12:37:07;100900.31;;;23.92;49.58
73842;BME280;62184;52.006;5.924;2022-10-30T12:39:52;100904.00;;;24.03;48.93
73842;BME280;62184;52.006;5.924;2022-10-30T12:42:24;100887.91;;;24.11;48.93
73842;BME280;62184;52.006;5.924;2022-10-30T12:44:57;100886.66;;;24.15;49.23
73842;BME280;62184;52.006;5.924;2022-10-30T12:47:37;100875.25;;;24.21;48.90
73842;BME280;62184;52.006;5.924;2022-10-30T12:50:16;100879.22;;;24.17;48.60
73842;BME280;62184;52.006;5.924;2022-10-30T12:52:50;100867.31;;;24.07;48.96
73842;BME280;62184;52.006;5.924;2022-10-30T12:55:27;100869.41;;;24.03;48.33
73842;BME280;62184;52.006;5.924;2022-10-30T12:58:03;100871.66;;;23.98;48.83
73842;BME280;62184;52.006;5.924;2022-10-30T13:00:44;100865.81;;;23.91;48.56
73842;BME280;62184;52.006;5.924;2022-10-30T13:03:25;100863.31;;;23.88;49.03
73842;BME280;62184;52.006;5.924;2022-10-30T13:06:00;100864.28;;;23.87;48.98
73842;BME280;62184;52.006;5.924;2022-10-30T13:08:33;100869.38;;;23.81;49.05